Aviation Discussion

.AVIATION /06Z WEDNESDAY THROUGH SUNDAY/... SBSDNC WL INCR UNDER BLDG HIGH PRES GRADUALLY SUPRESS THE RMNG STRATOCU OVR THE UPR OH REGION. VFR AND LGT...VARIABLE WIND WL THUS PREDOMINATE. .OUTLOOK.../THURSDAY THROUGH SUNDAY/... RSTRNS ARE PSBL WITH THE ADVN AND PASSAGE OF WEEKEND LOW PRES.

KPIT 160238Z 1603/1706 32008KT P6SM BKN050
FM160700 VRB05KT P6SM SCT250=

Cleveland Center Weather Service Unit (CWSU)
Mission:
Our main responsibility is to provide up to the minute weather information to FAA Supervisors and the ZOB Traffic Management Unit (TMU). Some of the products issued by the CWSU are the Center Weather Advisories (CWA) and the Meteorological Impact Statement (MIS). The CWA is an aviation weather warning for thunderstorms, severe icing or turbulence, and low IFR ceilings and visibility. The MIS is a 2-12 hour forecast for weather conditions, which are expected to impact ARTCC operations.
 
Operations:
The Cleveland Center Weather Service Unit (ZOB CWSU) is located at the Federal Aviation Administration (FAA) Air Route Traffic Control Center (ARTCC) in Oberlin, OH. Four National Weather Service meteorologists staff the office. Our hours of operation are from 6:00 A.M. to 9:30 P.M. daily.

Web Site Owner:
NOAA National Weather Service
Cleveland ARTCC Attn:CWSU
326 East Lorain Street
Oberlin, OH 44074
Web Administrator:Webmaster
Page last modified: 23 Feb 2013
Disclaimer
Credits
Glossary
Privacy Policy
About Our Organization
Career Opportunities